Time;durP1;ratioP1;P1;durP2;ratioP2;P2;SDS_P1;SDS_P2;PMS_P1;PMS_P2;Temp;Humidity;BMP_temperature;BMP_pressure;BME280_temperature;BME280_humidity;BME280_pressure;Samples;Min_cycle;Max_cycle;Signal;HPM_P1;HPM_P2
2021/03/14 00:00:58;;;;;;;1.70;0.77;;;;;;;7.06;100.00;96676.72;5091755;28;20265;-72
2021/03/14 00:03:28;;;;;;;1.13;0.70;;;;;;;6.99;100.00;96676.47;5091642;28;20217;-71
2021/03/14 00:05:56;;;;;;;1.17;0.50;;;;;;;7.06;100.00;96673.97;5091846;28;20232;-72
2021/03/14 00:08:24;;;;;;;0.83;0.60;;;;;;;6.88;100.00;96675.41;5074302;28;20222;-71
2021/03/14 00:10:55;;;;;;;1.77;0.70;;;;;;;7.02;100.00;96673.06;5092369;28;20569;-71
2021/03/14 00:13:28;;;;;;;0.93;0.60;;;;;;;7.12;100.00;96678.84;5090598;28;20209;-72
2021/03/14 00:15:55;;;;;;;0.70;0.50;;;;;;;7.12;100.00;96683.50;5094136;28;20220;-71
2021/03/14 00:18:28;;;;;;;1.53;0.70;;;;;;;6.88;100.00;96700.06;5097101;28;20239;-72
2021/03/14 00:20:55;;;;;;;1.20;0.70;;;;;;;7.08;100.00;96705.34;5096750;28;20291;-71
2021/03/14 00:23:21;;;;;;;1.00;0.67;;;;;;;7.08;100.00;96704.56;5098359;28;20616;-73
2021/03/14 00:25:48;;;;;;;0.80;0.80;;;;;;;6.91;100.00;96708.44;5102177;28;20244;-72
2021/03/14 00:28:16;;;;;;;0.80;0.70;;;;;;;6.99;100.00;96706.66;5090539;28;20258;-72
2021/03/14 00:30:43;;;;;;;1.77;0.90;;;;;;;7.05;100.00;96716.22;5089620;28;20270;-72
2021/03/14 00:33:09;;;;;;;1.70;0.80;;;;;;;6.91;100.00;96721.31;5089715;28;20247;-72
2021/03/14 00:35:36;;;;;;;1.53;0.80;;;;;;;6.76;100.00;96716.56;5090387;28;20267;-72
2021/03/14 00:38:02;;;;;;;2.20;0.90;;;;;;;6.40;100.00;96709.25;5090710;28;20224;-71
2021/03/14 00:40:28;;;;;;;2.00;0.70;;;;;;;6.35;100.00;96716.91;5090493;28;20211;-72
2021/03/14 00:42:58;;;;;;;2.37;1.10;;;;;;;6.13;100.00;96715.44;5090141;28;20235;-72
2021/03/14 00:45:29;;;;;;;2.10;0.60;;;;;;;6.08;100.00;96712.91;5089975;28;20247;-72
2021/03/14 00:47:55;;;;;;;3.60;0.80;;;;;;;5.82;100.00;96710.50;5090503;28;20248;-71
2021/03/14 00:50:22;;;;;;;1.07;0.60;;;;;;;5.87;100.00;96698.56;5091338;28;20228;-72
2021/03/14 00:52:48;;;;;;;1.50;0.60;;;;;;;5.98;100.00;96695.03;5090910;28;20208;-72
2021/03/14 00:55:14;;;;;;;1.00;0.40;;;;;;;5.89;100.00;96694.31;5090728;28;20228;-71
2021/03/14 00:57:40;;;;;;;1.00;0.30;;;;;;;6.15;100.00;96692.03;5093335;28;20278;-71
2021/03/14 01:33:55;;;;;;;2.57;0.47;;;;;;;5.93;100.00;96717.13;5106671;27;20552;-72
2021/03/14 01:36:21;;;;;;;0.60;0.30;;;;;;;6.00;100.00;96709.16;5106004;28;20248;-71
2021/03/14 01:38:47;;;;;;;0.60;0.30;;;;;;;6.15;100.00;96708.47;5107388;28;20218;-72
2021/03/14 01:41:13;;;;;;;1.43;0.47;;;;;;;6.33;100.00;96702.75;5107166;28;20622;-72
2021/03/14 01:43:41;;;;;;;3.43;1.03;;;;;;;6.29;100.00;96697.16;5106949;28;20657;-72
2021/03/14 01:46:09;;;;;;;1.53;0.67;;;;;;;6.18;100.00;96695.22;5107668;28;20287;-72
2021/03/14 01:48:36;;;;;;;2.43;1.10;;;;;;;6.01;100.00;96694.34;5110199;28;20207;-72
2021/03/14 01:51:04;;;;;;;3.13;0.93;;;;;;;6.29;100.00;96677.19;5113709;28;20307;-72
2021/03/14 01:53:32;;;;;;;1.50;0.70;;;;;;;6.39;100.00;96682.19;5112423;28;20281;-73
2021/03/14 01:55:58;;;;;;;0.40;0.40;;;;;;;6.17;100.00;96672.50;5114484;28;20250;-71
2021/03/14 01:58:24;;;;;;;1.40;0.70;;;;;;;6.17;100.00;96679.97;5108171;28;20742;-72
2021/03/14 02:00:52;;;;;;;0.50;0.50;;;;;;;6.35;100.00;96675.81;5107050;28;20290;-72
2021/03/14 02:03:23;;;;;;;0.67;0.40;;;;;;;6.12;100.00;96679.03;5106057;28;20200;-72
2021/03/14 02:05:51;;;;;;;0.97;0.40;;;;;;;6.37;100.00;96673.53;5106226;28;20259;-72
2021/03/14 02:08:18;;;;;;;1.43;0.40;;;;;;;6.47;100.00;96668.34;5107052;28;20208;-71
2021/03/14 02:10:47;;;;;;;0.37;0.30;;;;;;;6.45;100.00;96664.34;5108832;28;20299;-71
2021/03/14 02:13:31;;;;;;;0.60;0.40;;;;;;;6.42;100.00;96665.06;5107617;28;20793;-71
2021/03/14 02:16:07;;;;;;;1.60;0.50;;;;;;;6.29;100.00;96658.00;5108832;28;20220;-71
2021/03/14 02:18:36;;;;;;;0.70;0.40;;;;;;;6.43;100.00;96644.72;5110983;28;20196;-71
2021/03/14 02:21:04;;;;;;;0.73;0.40;;;;;;;6.42;100.00;96637.66;5107774;28;20196;-71
2021/03/14 02:23:59;;;;;;;2.63;1.17;;;;;;;6.53;100.00;96638.78;5108249;28;20348;-71
2021/03/14 02:26:32;;;;;;;2.50;1.20;;;;;;;6.51;100.00;96658.31;5099013;28;20311;-72
2021/03/14 02:28:59;;;;;;;2.70;1.27;;;;;;;6.50;100.00;96661.38;5108236;28;20268;-71
2021/03/14 02:31:29;;;;;;;2.70;1.33;;;;;;;6.22;100.00;96676.97;5106588;28;20218;-71
2021/03/14 02:34:05;;;;;;;2.23;1.00;;;;;;;6.34;100.00;96679.69;5105819;28;20227;-70
2021/03/14 02:36:35;;;;;;;3.23;1.53;;;;;;;6.44;100.00;96679.22;5104990;28;20255;-70
2021/03/14 02:39:01;;;;;;;2.13;1.13;;;;;;;6.62;100.00;96672.31;5110460;28;20783;-71
2021/03/14 02:41:27;;;;;;;1.37;1.10;;;;;;;6.60;100.00;96677.34;5109181;28;20207;-71
2021/03/14 02:43:56;;;;;;;1.70;0.80;;;;;;;6.46;100.00;96677.72;5098811;28;20208;-72
2021/03/14 02:46:22;;;;;;;1.20;0.60;;;;;;;6.30;100.00;96681.50;5092421;28;20225;-70
2021/03/14 02:48:49;;;;;;;1.60;0.80;;;;;;;6.62;100.00;96681.34;5091428;28;20251;-71
2021/03/14 02:51:15;;;;;;;2.40;1.00;;;;;;;6.70;100.00;96685.06;5092293;28;20209;-73
2021/03/14 02:53:43;;;;;;;1.87;0.80;;;;;;;6.76;100.00;96675.44;5091316;28;20224;-71
2021/03/14 02:56:10;;;;;;;2.13;1.20;;;;;;;6.54;100.00;96675.97;5092315;28;20228;-71
2021/03/14 02:58:38;;;;;;;1.00;0.90;;;;;;;6.51;100.00;96673.94;5092445;28;20262;-71
2021/03/14 03:01:06;;;;;;;1.43;0.90;;;;;;;6.57;100.00;96675.31;5092334;28;20228;-72
2021/03/14 03:03:33;;;;;;;1.80;1.00;;;;;;;6.79;100.00;96672.81;5091794;28;20232;-71
2021/03/14 03:06:00;;;;;;;3.50;0.83;;;;;;;6.69;100.00;96667.84;5091891;28;20296;-71
2021/03/14 03:08:28;;;;;;;2.03;1.00;;;;;;;6.69;100.00;96672.50;5092003;28;20204;-71
2021/03/14 03:10:58;;;;;;;0.83;0.80;;;;;;;6.75;100.00;96679.34;5092578;28;20825;-72
2021/03/14 03:13:25;;;;;;;2.23;1.10;;;;;;;6.71;100.00;96678.44;5092851;28;20256;-72
2021/03/14 03:15:55;;;;;;;0.90;0.80;;;;;;;6.74;100.00;96675.00;5093493;28;20717;-71
2021/03/14 03:18:22;;;;;;;2.67;0.80;;;;;;;6.61;100.00;96678.91;5092245;28;20211;-71
2021/03/14 03:20:50;;;;;;;2.23;0.83;;;;;;;6.78;100.00;96681.38;5092485;28;20239;-71
2021/03/14 03:23:17;;;;;;;2.13;0.80;;;;;;;6.81;100.00;96689.72;5101238;28;20224;-71
2021/03/14 03:25:43;;;;;;;1.33;0.60;;;;;;;6.63;100.00;96691.16;5101003;28;20278;-70
2021/03/14 03:28:13;;;;;;;1.60;0.73;;;;;;;6.72;100.00;96691.00;5092580;28;20212;-71
2021/03/14 03:30:41;;;;;;;1.53;0.80;;;;;;;6.48;100.00;96691.09;5093428;28;20205;-71
2021/03/14 03:33:07;;;;;;;0.80;0.60;;;;;;;6.40;100.00;96694.75;5093537;28;20236;-72
2021/03/14 03:35:34;;;;;;;0.83;0.60;;;;;;;6.53;100.00;96699.06;5094536;28;20252;-72
2021/03/14 03:38:00;;;;;;;0.83;0.60;;;;;;;6.73;100.00;96698.09;5093367;28;20583;-71
2021/03/14 03:40:32;;;;;;;2.20;0.77;;;;;;;6.72;100.00;96699.22;5091484;28;20216;-71
2021/03/14 03:43:39;;;;;;;2.67;0.60;;;;;;;6.66;100.00;96695.91;5089637;28;20952;-70
2021/03/14 03:46:09;;;;;;;0.60;0.50;;;;;;;6.62;100.00;96703.25;5067680;28;20327;-71
2021/03/14 03:48:44;;;;;;;1.20;0.60;;;;;;;6.54;100.00;96706.13;5068053;28;20239;-72
2021/03/14 03:51:11;;;;;;;1.73;0.50;;;;;;;6.40;100.00;96697.47;5081042;28;20207;-71
2021/03/14 03:53:39;;;;;;;1.50;0.43;;;;;;;6.58;100.00;96704.28;5091077;28;20912;-71
2021/03/14 03:56:06;;;;;;;0.70;0.40;;;;;;;6.44;100.00;96720.31;5104941;28;20229;-71
2021/03/14 03:58:34;;;;;;;0.70;0.60;;;;;;;6.43;100.00;96726.91;5114293;28;20196;-71
2021/03/14 04:01:01;;;;;;;2.17;0.80;;;;;;;6.29;100.00;96731.97;5114844;28;20232;-73
2021/03/14 04:03:34;;;;;;;1.40;0.50;;;;;;;6.46;100.00;96720.78;5099784;28;20293;-71
2021/03/14 04:06:01;;;;;;;2.30;0.40;;;;;;;6.72;100.00;96734.84;5090900;28;20775;-70
2021/03/14 04:08:29;;;;;;;2.27;0.73;;;;;;;6.65;100.00;96738.19;5091161;28;20303;-70
2021/03/14 04:10:56;;;;;;;0.87;0.40;;;;;;;6.60;100.00;96732.97;5090789;28;20250;-70
2021/03/14 04:13:25;;;;;;;0.70;0.50;;;;;;;6.52;100.00;96733.06;5091237;28;20323;-70
2021/03/14 04:15:51;;;;;;;1.63;0.80;;;;;;;6.46;100.00;96742.69;5091134;28;20287;-71
2021/03/14 04:18:18;;;;;;;0.87;0.50;;;;;;;6.42;100.00;96747.25;5093026;28;20213;-70
2021/03/14 04:21:07;;;;;;;1.73;0.53;;;;;;;6.21;100.00;96752.03;5092865;28;20204;-70
2021/03/14 04:23:34;;;;;;;0.60;0.60;;;;;;;6.33;100.00;96763.00;5090596;28;20216;-72
2021/03/14 04:26:02;;;;;;;1.50;0.50;;;;;;;6.25;100.00;96752.97;5090531;28;20224;-72
2021/03/14 04:28:31;;;;;;;2.03;0.60;;;;;;;6.32;100.00;96761.41;5090738;28;20236;-71
2021/03/14 04:30:59;;;;;;;1.13;0.57;;;;;;;6.20;100.00;96755.94;5090602;28;20216;-71
2021/03/14 04:33:28;;;;;;;2.20;0.60;;;;;;;6.27;100.00;96756.97;5089362;28;20259;-70
2021/03/14 04:35:58;;;;;;;0.87;0.40;;;;;;;6.37;100.00;96761.19;5090305;28;20232;-70
2021/03/14 04:38:28;;;;;;;1.30;0.60;;;;;;;6.07;100.00;96772.38;5090644;28;20232;-71
2021/03/14 04:40:55;;;;;;;1.33;0.80;;;;;;;6.20;100.00;96784.13;5090486;28;20295;-70
2021/03/14 04:43:22;;;;;;;1.80;0.70;;;;;;;6.35;100.00;96790.88;5089501;28;20690;-71
2021/03/14 04:45:50;;;;;;;1.47;0.70;;;;;;;6.32;100.00;96783.31;5088687;28;20234;-71
2021/03/14 04:48:18;;;;;;;1.10;0.60;;;;;;;6.18;100.00;96795.41;5090146;28;20300;-71
2021/03/14 04:50:45;;;;;;;1.57;0.50;;;;;;;6.13;100.00;96809.34;5090371;28;20216;-71
2021/03/14 04:53:12;;;;;;;2.57;0.80;;;;;;;6.07;100.00;96805.25;5092968;28;20223;-70
2021/03/14 04:55:40;;;;;;;1.27;0.60;;;;;;;6.05;100.00;96799.31;5096347;28;20229;-70
2021/03/14 04:58:08;;;;;;;0.93;0.63;;;;;;;5.98;100.00;96810.03;5089446;28;20258;-72
2021/03/14 05:00:35;;;;;;;3.03;0.67;;;;;;;5.99;100.00;96819.81;5090051;28;20316;-72
2021/03/14 05:03:01;;;;;;;0.80;0.50;;;;;;;6.06;100.00;96822.78;5089311;28;20307;-72
2021/03/14 05:05:28;;;;;;;2.40;0.90;;;;;;;5.92;100.00;96832.47;5089603;28;20247;-72
2021/03/14 05:07:56;;;;;;;0.90;0.53;;;;;;;5.90;100.00;96842.94;5089974;28;20262;-70
2021/03/14 05:10:23;;;;;;;2.33;0.70;;;;;;;5.89;100.00;96844.09;5091461;28;20208;-71
2021/03/14 05:12:50;;;;;;;1.30;0.50;;;;;;;6.00;100.00;96854.25;5090741;28;20278;-72
2021/03/14 05:15:18;;;;;;;0.77;0.60;;;;;;;5.90;100.00;96853.91;5079894;28;20264;-71
2021/03/14 05:17:46;;;;;;;2.83;0.77;;;;;;;5.85;100.00;96860.41;5071096;28;20209;-71
2021/03/14 05:20:18;;;;;;;3.17;0.80;;;;;;;5.94;100.00;96868.53;5069454;28;20220;-70
2021/03/14 05:22:46;;;;;;;0.50;0.50;;;;;;;5.94;100.00;96874.81;5078738;28;20228;-70
2021/03/14 05:25:18;;;;;;;1.33;0.70;;;;;;;5.85;100.00;96876.03;5089485;28;20285;-71
2021/03/14 05:27:50;;;;;;;1.10;0.43;;;;;;;5.92;100.00;96896.25;5089038;28;20204;-71
2021/03/14 05:30:17;;;;;;;1.83;0.70;;;;;;;6.01;100.00;96896.94;5089804;28;20889;-71
2021/03/14 05:32:43;;;;;;;2.50;0.70;;;;;;;5.93;100.00;96903.31;5089184;28;20319;-70
2021/03/14 05:35:10;;;;;;;0.60;0.60;;;;;;;5.81;100.00;96903.25;5089113;28;20705;-71
2021/03/14 05:37:36;;;;;;;1.43;0.70;;;;;;;5.80;100.00;96912.56;5092092;28;20232;-72
2021/03/14 05:40:03;;;;;;;1.50;0.70;;;;;;;5.87;100.00;96915.63;5102592;28;20227;-72
2021/03/14 05:42:29;;;;;;;0.67;0.60;;;;;;;6.02;100.00;96917.69;5094103;28;20618;-72
2021/03/14 05:44:56;;;;;;;2.00;0.53;;;;;;;6.05;100.00;96928.00;5089857;28;20232;-71
2021/03/14 05:47:23;;;;;;;1.53;0.87;;;;;;;6.01;100.00;96924.31;5089556;28;20243;-72
2021/03/14 05:49:51;;;;;;;1.43;0.50;;;;;;;6.06;100.00;96929.59;5089357;28;20254;-71
2021/03/14 05:52:19;;;;;;;2.67;0.87;;;;;;;5.89;100.00;96932.47;5072879;28;20228;-72
2021/03/14 05:54:46;;;;;;;1.43;0.60;;;;;;;5.59;100.00;96936.44;5088034;28;20227;-71
2021/03/14 05:57:16;;;;;;;2.10;0.67;;;;;;;5.82;100.00;96943.16;5090411;28;20230;-71
2021/03/14 05:59:45;;;;;;;0.50;0.50;;;;;;;5.94;100.00;96947.91;5089318;28;20208;-71
2021/03/14 06:02:12;;;;;;;1.73;0.60;;;;;;;5.81;100.00;96955.25;5089436;28;20208;-72
2021/03/14 06:04:38;;;;;;;0.87;0.43;;;;;;;5.61;100.00;96960.72;5071316;28;20209;-71
2021/03/14 06:07:04;;;;;;;1.27;0.50;;;;;;;5.70;100.00;96967.72;5089889;28;20248;-71
2021/03/14 06:09:30;;;;;;;0.60;0.37;;;;;;;5.64;100.00;96982.75;5088632;28;20728;-71
2021/03/14 06:11:57;;;;;;;0.30;0.30;;;;;;;5.64;100.00;96982.75;5090335;28;20283;-73
2021/03/14 06:14:23;;;;;;;0.30;0.30;;;;;;;5.69;100.00;96990.75;5088848;28;20205;-74
2021/03/14 06:16:49;;;;;;;0.30;0.30;;;;;;;5.67;100.00;97001.25;5090702;28;20224;-74
2021/03/14 06:19:15;;;;;;;0.70;0.40;;;;;;;5.51;100.00;96997.47;5092159;28;20200;-74
2021/03/14 06:21:42;;;;;;;0.53;0.40;;;;;;;5.44;100.00;97005.41;5077579;28;20208;-70
2021/03/14 06:24:10;;;;;;;0.60;0.50;;;;;;;5.55;100.00;97017.59;5099155;28;20205;-71
2021/03/14 06:26:48;;;;;;;1.33;0.53;;;;;;;5.69;100.00;97020.06;5090144;28;20216;-71
2021/03/14 06:29:17;;;;;;;0.70;0.40;;;;;;;5.59;100.00;97029.47;5082499;28;20254;-70
2021/03/14 06:32:04;;;;;;;0.40;0.40;;;;;;;5.42;100.00;97037.78;5086635;28;20622;-69
2021/03/14 06:34:33;;;;;;;0.40;0.40;;;;;;;5.58;100.00;97035.28;5082010;28;20253;-69
2021/03/14 06:37:16;;;;;;;1.03;0.50;;;;;;;5.60;100.00;97033.78;5086315;28;20312;-71
2021/03/14 06:39:49;;;;;;;2.10;0.50;;;;;;;5.37;100.00;97035.25;5089197;28;20200;-69
2021/03/14 06:42:30;;;;;;;0.50;0.50;;;;;;;5.68;100.00;97041.16;5087127;28;20211;-69
2021/03/14 06:45:16;;;;;;;0.60;0.43;;;;;;;5.62;100.00;97053.41;5093200;28;20783;-70
2021/03/14 06:47:46;;;;;;;0.30;0.30;;;;;;;5.68;100.00;97056.75;5110328;28;20222;-70
2021/03/14 06:50:37;;;;;;;0.40;0.40;;;;;;;6.01;100.00;97065.91;5111347;28;20205;-70
2021/03/14 06:53:19;;;;;;;0.50;0.50;;;;;;;5.84;100.00;97077.78;5107664;28;20232;-71
2021/03/14 06:55:47;;;;;;;0.93;0.63;;;;;;;6.01;100.00;97083.13;5096653;28;20273;-72
2021/03/14 06:58:24;;;;;;;1.50;1.17;;;;;;;5.79;100.00;97086.16;5091529;28;20209;-71
2021/03/14 07:01:10;;;;;;;0.70;0.50;;;;;;;5.86;100.00;97102.88;5093960;28;20257;-72
2021/03/14 07:04:04;;;;;;;1.33;0.50;;;;;;;6.02;100.00;97109.38;5092940;28;20256;-71
2021/03/14 07:06:30;;;;;;;1.00;0.50;;;;;;;6.31;100.00;97105.78;5092762;28;20224;-71
2021/03/14 07:09:09;;;;;;;0.40;0.40;;;;;;;6.55;100.00;97103.13;5075615;28;20624;-71
2021/03/14 07:11:42;;;;;;;1.50;0.63;;;;;;;6.60;100.00;97110.38;5092663;28;20642;-71
2021/03/14 07:14:13;;;;;;;0.37;0.37;;;;;;;7.94;100.00;97105.50;5092893;28;20701;-72
2021/03/14 07:16:48;;;;;;;0.57;0.40;;;;;;;8.73;100.00;97109.44;5093176;28;20300;-71
2021/03/14 07:19:26;;;;;;;1.50;0.40;;;;;;;7.68;100.00;97112.50;5100298;28;20237;-71
2021/03/14 07:22:01;;;;;;;0.30;0.30;;;;;;;7.35;100.00;97120.84;5101052;28;20215;-71
2021/03/14 07:24:38;;;;;;;0.67;0.40;;;;;;;6.85;100.00;97129.31;5098764;28;20210;-72
2021/03/14 07:27:07;;;;;;;1.77;0.40;;;;;;;7.17;100.00;97128.47;5093769;28;20216;-72
2021/03/14 07:29:34;;;;;;;0.77;0.50;;;;;;;7.44;100.00;97124.28;5092823;28;20205;-72
2021/03/14 07:32:02;;;;;;;0.83;0.40;;;;;;;7.21;100.00;97128.59;5093391;28;20220;-74
2021/03/14 07:34:31;;;;;;;2.63;0.43;;;;;;;7.27;100.00;97135.47;5090615;28;20261;-74
2021/03/14 07:36:57;;;;;;;0.70;0.53;;;;;;;7.17;100.00;97138.66;5092337;28;20248;-73
2021/03/14 07:39:23;;;;;;;1.43;0.70;;;;;;;7.38;100.00;97135.81;5095877;28;20299;-73
2021/03/14 07:41:49;;;;;;;1.90;0.67;;;;;;;7.34;100.00;97127.47;5090611;28;20229;-73
2021/03/14 07:44:21;;;;;;;1.77;0.70;;;;;;;7.78;100.00;97134.00;5078573;28;20231;-73
2021/03/14 07:46:49;;;;;;;0.90;0.70;;;;;;;8.48;100.00;97113.44;5084031;28;20767;-75
2021/03/14 07:49:17;;;;;;;3.13;0.70;;;;;;;8.55;100.00;97111.69;5091550;28;20222;-76
2021/03/14 07:51:47;;;;;;;1.10;0.80;;;;;;;8.73;100.00;97112.19;5088325;28;20208;-72
2021/03/14 07:54:24;;;;;;;3.43;1.00;;;;;;;9.24;100.00;97113.97;5092089;28;20647;-73
2021/03/14 07:56:54;;;;;;;2.33;1.13;;;;;;;10.55;100.00;97104.13;5087830;28;20234;-73
2021/03/14 07:59:25;;;;;;;3.13;1.10;;;;;;;12.59;100.00;97099.38;5093407;28;20204;-73
2021/03/14 08:01:51;;;;;;;1.30;0.70;;;;;;;12.05;100.00;97092.31;5093888;28;20271;-74
2021/03/14 08:04:33;;;;;;;2.03;0.93;;;;;;;11.68;100.00;97099.59;5089565;28;20201;-73
2021/03/14 08:06:59;;;;;;;2.27;0.90;;;;;;;10.55;100.00;97106.88;5093515;28;20228;-72
2021/03/14 08:09:53;;;;;;;2.60;0.90;;;;;;;12.10;100.00;97100.28;5086779;28;20232;-72
2021/03/14 08:12:25;;;;;;;2.73;1.00;;;;;;;12.82;100.00;97098.09;5078612;28;20715;-72
2021/03/14 08:14:53;;;;;;;3.37;1.10;;;;;;;12.57;100.00;97096.19;5078399;28;20200;-71
2021/03/14 08:17:22;;;;;;;2.63;1.13;;;;;;;13.76;100.00;97093.94;5080025;28;20197;-70
2021/03/14 08:19:50;;;;;;;2.53;0.95;;;;;;;14.18;100.00;97097.84;5079658;28;20227;-71
2021/03/14 08:22:38;;;;;;;3.17;0.88;;;;;;;13.09;100.00;97107.13;5080383;28;20192;-70
2021/03/14 08:25:24;;;;;;;2.63;0.98;;;;;;;13.99;100.00;97092.56;5078815;28;20312;-70
2021/03/14 08:27:52;;;;;;;3.70;1.40;;;;;;;12.33;100.00;97114.06;5081285;28;20614;-70
2021/03/14 08:30:31;;;;;;;3.30;1.13;;;;;;;12.53;100.00;97109.97;5080447;28;20205;-70
2021/03/14 08:33:45;;;;;;;4.15;1.08;;;;;;;12.69;100.00;97107.00;5078897;28;20292;-70
2021/03/14 08:36:16;;;;;;;2.10;0.98;;;;;;;14.08;100.00;97104.13;5070016;28;20251;-70
2021/03/14 08:38:50;;;;;;;3.17;1.00;;;;;;;13.04;100.00;97111.06;5074662;28;20280;-71
2021/03/14 08:41:27;;;;;;;2.22;1.00;;;;;;;12.79;100.00;97109.91;5090049;28;20215;-70
2021/03/14 08:44:03;;;;;;;2.57;1.27;;;;;;;13.07;100.00;97103.94;5089279;28;20220;-70
2021/03/14 08:46:48;;;;;;;3.87;1.50;;;;;;;11.60;100.00;97114.44;5090489;28;20257;-70
2021/03/14 08:49:16;;;;;;;2.17;1.20;;;;;;;11.23;100.00;97121.66;5090196;28;20197;-70
2021/03/14 08:51:43;;;;;;;2.77;1.10;;;;;;;13.39;100.00;97096.78;5088792;28;20208;-72
2021/03/14 08:54:34;;;;;;;1.87;0.87;;;;;;;13.60;100.00;97093.41;5089222;28;20207;-72
2021/03/14 08:57:09;;;;;;;2.13;0.90;;;;;;;14.86;100.00;97099.03;5090138;28;20252;-73
2021/03/14 08:59:44;;;;;;;1.98;0.90;;;;;;;13.79;100.00;97104.28;5089884;28;20677;-71
2021/03/14 09:02:10;;;;;;;1.33;0.70;;;;;;;13.66;100.00;97105.75;5087354;28;20219;-72
2021/03/14 09:04:36;;;;;;;1.77;0.98;;;;;;;13.74;100.00;97099.09;5079980;28;20933;-71
2021/03/14 09:07:10;;;;;;;2.30;1.02;;;;;;;14.62;100.00;97088.59;5078616;28;20248;-72
2021/03/14 09:09:38;;;;;;;1.60;0.73;;;;;;;14.04;100.00;97086.66;5084323;28;20203;-74
2021/03/14 09:12:07;;;;;;;2.13;0.95;;;;;;;13.86;100.00;97094.03;5085128;28;20755;-71
2021/03/14 09:14:53;;;;;;;3.30;1.02;;;;;;;12.85;100.00;97104.84;5088582;28;20713;-71
2021/03/14 09:17:22;;;;;;;2.40;1.17;;;;;;;13.59;100.00;97114.81;5077202;28;20204;-71
2021/03/14 09:19:53;;;;;;;2.22;1.10;;;;;;;13.40;100.00;97128.84;5088474;28;20232;-73
2021/03/14 09:22:25;;;;;;;2.10;1.00;;;;;;;13.82;100.00;97103.50;5088938;28;20239;-73
2021/03/14 09:25:07;;;;;;;2.43;1.30;;;;;;;13.98;100.00;97115.13;5088845;28;20200;-73
2021/03/14 09:27:35;;;;;;;4.27;0.90;;;;;;;13.94;100.00;97122.63;5086436;28;20642;-73
2021/03/14 09:30:11;;;;;;;3.00;1.03;;;;;;;13.58;100.00;97137.34;5088406;28;20293;-73
2021/03/14 09:32:41;;;;;;;1.47;0.90;;;;;;;12.14;100.00;97150.09;5091248;28;20302;-73
2021/03/14 09:35:25;;;;;;;2.93;0.83;;;;;;;11.14;100.00;97160.56;5113587;28;20221;-72
2021/03/14 09:37:57;;;;;;;4.40;0.90;;;;;;;10.56;100.00;97163.66;5114948;28;20279;-72
2021/03/14 09:40:38;;;;;;;1.33;1.00;;;;;;;10.73;100.00;97168.78;5108201;28;20204;-73
2021/03/14 09:43:09;;;;;;;2.10;0.90;;;;;;;10.15;100.00;97176.91;5088808;28;20297;-72
2021/03/14 09:45:37;;;;;;;1.67;0.77;;;;;;;9.58;100.00;97179.38;5091634;28;20776;-74
2021/03/14 09:48:17;;;;;;;2.17;1.50;;;;;;;9.23;100.00;97189.47;5093077;28;20208;-73
2021/03/14 09:50:45;;;;;;;1.30;0.90;;;;;;;9.05;100.00;97199.19;5093715;28;20265;-73
2021/03/14 09:53:13;;;;;;;3.03;1.17;;;;;;;9.73;100.00;97197.06;5091674;28;20208;-72
2021/03/14 09:55:42;;;;;;;3.20;1.00;;;;;;;9.87;100.00;97195.47;5096243;28;20220;-73
2021/03/14 09:58:11;;;;;;;2.37;1.10;;;;;;;9.46;100.00;97203.44;5097596;28;20203;-71
2021/03/14 10:00:37;;;;;;;4.47;1.20;;;;;;;9.34;100.00;97209.84;5098090;28;20236;-73
2021/03/14 10:03:06;;;;;;;3.43;1.10;;;;;;;9.51;100.00;97189.41;5095320;28;20217;-73
2021/03/14 10:05:40;;;;;;;3.80;1.17;;;;;;;9.13;100.00;97211.97;5098810;28;20239;-74
2021/03/14 10:08:08;;;;;;;4.43;1.50;;;;;;;8.81;100.00;97211.06;5101176;28;20204;-73
2021/03/14 10:10:38;;;;;;;4.97;1.10;;;;;;;8.92;100.00;97208.63;5100296;28;20200;-72
2021/03/14 10:13:23;;;;;;;3.33;1.20;;;;;;;9.19;100.00;97213.34;5080586;28;20596;-73
2021/03/14 10:15:50;;;;;;;5.17;1.10;;;;;;;9.16;100.00;97219.53;5082302;28;20224;-73
2021/03/14 10:18:19;;;;;;;2.67;1.10;;;;;;;9.55;100.00;97207.63;5088392;28;20211;-73
2021/03/14 10:20:46;;;;;;;1.80;1.00;;;;;;;9.36;100.00;97215.75;5089856;28;20201;-73
2021/03/14 10:23:12;;;;;;;2.00;1.00;;;;;;;9.12;100.00;97218.66;5083320;28;20301;-73
2021/03/14 10:25:40;;;;;;;2.93;1.30;;;;;;;9.21;100.00;97209.06;5092772;28;20254;-74
2021/03/14 10:28:07;;;;;;;2.00;1.10;;;;;;;9.09;100.00;97203.63;5092709;28;20228;-73
2021/03/14 10:30:34;;;;;;;1.90;0.90;;;;;;;8.98;100.00;97215.47;5092893;28;20277;-71
2021/03/14 10:33:00;;;;;;;1.53;0.90;;;;;;;8.42;100.00;97224.78;5091393;28;20247;-73
2021/03/14 10:35:27;;;;;;;1.40;0.67;;;;;;;7.23;100.00;97233.31;5079138;28;20220;-73
2021/03/14 10:37:53;;;;;;;0.80;0.60;;;;;;;7.15;100.00;97239.69;5088624;28;20205;-72
2021/03/14 10:40:21;;;;;;;0.60;0.50;;;;;;;7.31;100.00;97228.88;5088731;28;20243;-71
2021/03/14 10:42:49;;;;;;;1.20;0.70;;;;;;;8.25;100.00;97222.28;5087990;28;20267;-71
2021/03/14 10:45:17;;;;;;;1.03;0.50;;;;;;;9.23;100.00;97228.78;5088031;28;20233;-72
2021/03/14 10:47:45;;;;;;;2.23;1.03;;;;;;;9.98;100.00;97220.56;5088366;28;20670;-70
2021/03/14 10:50:20;;;;;;;1.17;0.70;;;;;;;10.80;100.00;97216.63;5088373;28;20211;-70
2021/03/14 10:53:15;;;;;;;1.40;0.90;;;;;;;10.37;100.00;97222.34;5088238;28;20199;-69
2021/03/14 10:56:04;;;;;;;1.97;0.80;;;;;;;10.48;100.00;97233.59;5087922;28;20220;-70
2021/03/14 10:58:39;;;;;;;3.03;1.10;;;;;;;9.93;100.00;97235.41;5091401;28;20235;-70
2021/03/14 11:01:08;;;;;;;3.00;0.87;;;;;;;9.88;100.00;97237.63;5104605;28;20238;-69
2021/03/14 11:03:38;;;;;;;1.50;1.00;;;;;;;9.38;100.00;97246.50;5093230;28;20232;-70
2021/03/14 11:06:16;;;;;;;2.83;1.50;;;;;;;9.27;100.00;97248.16;5094433;28;20233;-71
2021/03/14 11:09:02;;;;;;;2.67;1.37;;;;;;;9.11;100.00;97259.13;5096070;28;20677;-70
2021/03/14 11:11:42;;;;;;;2.10;1.30;;;;;;;9.31;100.00;97262.03;5093634;28;20232;-70
2021/03/14 11:14:36;;;;;;;4.03;1.30;;;;;;;9.50;100.00;97262.97;5076377;28;20778;-72
2021/03/14 11:17:14;;;;;;;3.90;1.30;;;;;;;9.18;100.00;97272.28;5091978;28;20224;-72
2021/03/14 11:19:46;;;;;;;3.63;1.60;;;;;;;8.77;100.00;97270.69;5092783;28;20208;-71
2021/03/14 11:22:13;;;;;;;4.00;1.33;;;;;;;8.67;100.00;97275.84;5091059;28;20206;-71
2021/03/14 11:24:40;;;;;;;5.57;1.47;;;;;;;8.90;100.00;97279.72;5092652;28;20661;-70
2021/03/14 11:27:07;;;;;;;3.07;1.50;;;;;;;8.70;100.00;97288.91;5093184;28;20204;-71
2021/03/14 11:29:34;;;;;;;3.07;1.30;;;;;;;8.72;100.00;97290.16;5092107;28;20240;-72
2021/03/14 11:32:00;;;;;;;6.23;1.20;;;;;;;8.87;100.00;97283.94;5091633;28;20227;-72
2021/03/14 11:34:27;;;;;;;3.47;1.17;;;;;;;9.24;100.00;97284.66;5091027;28;20200;-71
2021/03/14 11:36:53;;;;;;;4.23;1.63;;;;;;;9.35;100.00;97280.25;5091466;28;20229;-70
2021/03/14 11:39:19;;;;;;;2.93;1.30;;;;;;;9.05;100.00;97276.25;5091898;28;20238;-71
2021/03/14 11:41:46;;;;;;;3.97;1.70;;;;;;;8.74;100.00;97282.38;5090727;28;20272;-71
2021/03/14 11:44:13;;;;;;;5.70;1.77;;;;;;;8.91;100.00;97278.56;5086799;28;20323;-71
2021/03/14 11:46:39;;;;;;;3.03;1.13;;;;;;;8.39;100.00;97286.78;5099534;28;20220;-72
2021/03/14 11:49:06;;;;;;;5.70;1.43;;;;;;;8.17;100.00;97289.94;5089313;28;20623;-72
2021/03/14 11:51:33;;;;;;;3.60;1.30;;;;;;;8.15;100.00;97292.22;5092106;28;20212;-71
2021/03/14 11:53:59;;;;;;;4.07;1.67;;;;;;;8.21;100.00;97288.09;5091696;28;20701;-71
2021/03/14 11:56:46;;;;;;;4.27;1.30;;;;;;;8.32;100.00;97282.97;5094464;28;20323;-72
2021/03/14 11:59:12;;;;;;;1.93;1.27;;;;;;;8.74;100.00;97289.84;5093246;28;20295;-73
2021/03/14 12:01:39;;;;;;;3.13;1.20;;;;;;;10.06;100.00;97272.75;5089167;28;20292;-73
2021/03/14 12:04:08;;;;;;;3.67;1.20;;;;;;;10.40;100.00;97253.91;5091559;28;20243;-71
2021/03/14 12:06:35;;;;;;;1.90;1.10;;;;;;;10.56;100.00;97260.22;5091773;28;20221;-71
2021/03/14 12:09:04;;;;;;;2.43;1.20;;;;;;;10.34;100.00;97255.34;5091737;28;20253;-71
2021/03/14 12:11:31;;;;;;;2.43;1.30;;;;;;;10.48;100.00;97250.97;5081405;28;20669;-73
2021/03/14 12:13:57;;;;;;;2.50;1.27;;;;;;;10.45;100.00;97256.41;5066055;28;20666;-70
2021/03/14 12:16:23;;;;;;;2.57;1.03;;;;;;;10.26;100.00;97251.59;5079786;28;20311;-70
2021/03/14 12:18:49;;;;;;;4.33;1.50;;;;;;;10.10;100.00;97246.13;5079261;28;20253;-73
2021/03/14 12:21:18;;;;;;;4.57;1.70;;;;;;;10.02;100.00;97247.06;5094787;28;20201;-71